createdAt,value
2022-11-20T00:02:40.180Z,19.61
2022-11-20T00:05:43.816Z,19.62
2022-11-20T00:08:47.770Z,19.61
2022-11-20T00:11:52.842Z,19.62
2022-11-20T00:14:56.313Z,19.61
2022-11-20T00:17:59.944Z,19.60
2022-11-20T00:21:04.621Z,19.60
2022-11-20T00:24:11.549Z,19.61
2022-11-20T00:27:16.184Z,19.57
2022-11-20T00:30:20.357Z,19.56
2022-11-20T00:33:23.827Z,19.55
2022-11-20T00:36:30.494Z,19.55
2022-11-20T00:39:33.868Z,19.52
2022-11-20T00:42:38.759Z,19.81
2022-11-20T00:45:42.052Z,20.28
2022-11-20T00:48:46.536Z,20.86
2022-11-20T00:51:49.962Z,21.51
2022-11-20T00:54:53.568Z,22.11
2022-11-20T00:57:59.292Z,22.68
2022-11-20T01:01:08.486Z,23.23
2022-11-20T01:04:11.863Z,23.70
2022-11-20T01:07:15.432Z,24.15
2022-11-20T01:10:19.016Z,24.46
2022-11-20T01:13:43.720Z,24.75
2022-11-20T01:16:49.934Z,24.99
2022-11-20T01:19:53.565Z,25.22
2022-11-20T01:22:56.873Z,25.38
2022-11-20T01:26:03.676Z,25.48
2022-11-20T01:29:11.155Z,25.56
2022-11-20T01:32:14.762Z,25.55
2022-11-20T01:35:18.164Z,25.50
2022-11-20T01:38:23.595Z,25.43
2022-11-20T01:41:47.513Z,25.37
2022-11-20T01:44:57.421Z,25.18
2022-11-20T01:48:00.903Z,24.98
2022-11-20T01:51:08.213Z,24.83
2022-11-20T01:54:18.398Z,24.70
2022-11-20T01:57:26.732Z,24.56
2022-11-20T02:00:31.751Z,24.48
2022-11-20T02:03:35.705Z,24.37
2022-11-20T02:06:48.208Z,24.33
2022-11-20T02:09:57.382Z,24.20
2022-11-20T02:13:19.499Z,24.12
2022-11-20T02:16:29.880Z,24.08
2022-11-20T02:19:34.278Z,23.98
2022-11-20T02:22:50.627Z,23.96
2022-11-20T02:25:57.843Z,23.91
2022-11-20T02:29:04.958Z,23.89
2022-11-20T02:32:08.592Z,23.85
2022-11-20T02:35:43.693Z,23.87
2022-11-20T02:38:47.429Z,23.76
2022-11-20T02:41:54.992Z,23.78
2022-11-20T02:44:58.374Z,23.76
2022-11-20T02:48:02.124Z,23.77
2022-11-20T02:51:05.755Z,23.78
2022-11-20T02:54:09.398Z,23.80
2022-11-20T02:57:14.195Z,23.84
2022-11-20T03:00:18.576Z,23.83
2022-11-20T03:03:21.791Z,23.86
2022-11-20T03:06:25.543Z,23.86
2022-11-20T03:09:28.970Z,23.88
2022-11-20T03:12:33.955Z,23.89
2022-11-20T03:15:38.724Z,23.87
2022-11-20T03:18:43.714Z,23.86
2022-11-20T03:21:47.101Z,23.84
2022-11-20T03:24:50.905Z,23.84
2022-11-20T03:27:56.469Z,23.85
2022-11-20T03:31:00.241Z,23.82
2022-11-20T03:34:05.139Z,23.85
2022-11-20T03:37:09.005Z,23.82
2022-11-20T03:40:12.628Z,23.83
2022-11-20T03:43:18.016Z,23.85
2022-11-20T03:46:22.466Z,23.84
2022-11-20T03:49:26.506Z,23.82
2022-11-20T03:52:29.773Z,23.82
2022-11-20T03:55:33.658Z,23.84
2022-11-20T03:58:41.903Z,23.88
2022-11-20T04:01:49.411Z,23.88
2022-11-20T04:04:53.488Z,23.91
2022-11-20T04:07:57.388Z,23.93
2022-11-20T04:11:12.134Z,24.00
2022-11-20T04:14:18.792Z,23.96
2022-11-20T04:17:22.295Z,23.94
2022-11-20T04:20:26.038Z,23.95
2022-11-20T04:23:29.704Z,23.91
2022-11-20T04:26:34.794Z,23.88
2022-11-20T04:29:39.527Z,23.87
2022-11-20T04:32:43.290Z,23.84
2022-11-20T04:35:50.054Z,23.86
2022-11-20T04:38:57.132Z,23.84
2022-11-20T04:42:14.630Z,23.81
2022-11-20T04:45:19.961Z,23.84
2022-11-20T04:48:24.679Z,23.83
2022-11-20T04:51:29.373Z,23.83
2022-11-20T04:54:32.793Z,23.84
2022-11-20T04:57:36.806Z,23.84
2022-11-20T05:00:42.111Z,23.84
2022-11-20T05:03:47.273Z,23.82
2022-11-20T05:06:51.904Z,23.84
2022-11-20T05:09:55.716Z,23.80
2022-11-20T05:12:59.906Z,23.76
2022-11-20T05:16:07.712Z,23.71
2022-11-20T05:19:11.568Z,23.71
2022-11-20T05:22:15.460Z,23.77
2022-11-20T05:25:18.867Z,23.80
2022-11-20T05:28:23.889Z,23.78
2022-11-20T05:31:28.775Z,23.75
2022-11-20T05:34:32.472Z,23.67
2022-11-20T05:37:35.911Z,23.60
2022-11-20T05:40:39.557Z,23.51
2022-11-20T05:43:45.719Z,23.42
2022-11-20T05:46:50.807Z,23.34
2022-11-20T05:49:54.183Z,23.24
2022-11-20T05:53:00.463Z,23.21
2022-11-20T05:56:06.573Z,23.14
2022-11-20T05:59:10.340Z,22.93
2022-11-20T06:02:15.074Z,22.72
2022-11-20T06:05:20.416Z,22.56
2022-11-20T06:08:23.999Z,22.50
2022-11-20T06:11:27.964Z,22.43
2022-11-20T06:14:31.336Z,22.40
2022-11-20T06:17:36.207Z,22.43
2022-11-20T06:20:42.204Z,22.40
2022-11-20T06:23:47.083Z,22.41
2022-11-20T06:26:50.671Z,22.41
2022-11-20T06:29:54.307Z,22.43
2022-11-20T06:32:59.071Z,22.46
2022-11-20T06:36:10.166Z,22.45
2022-11-20T06:39:14.241Z,22.46
2022-11-20T06:42:17.920Z,22.51
2022-11-20T06:45:21.394Z,22.54
2022-11-20T06:48:28.622Z,22.57
2022-11-20T06:51:32.314Z,22.58
2022-11-20T06:54:35.961Z,22.59
2022-11-20T06:57:39.497Z,22.61
2022-11-20T07:00:43.461Z,22.61
2022-11-20T07:03:54.423Z,22.64
2022-11-20T07:06:58.644Z,22.57
2022-11-20T07:10:02.035Z,22.53
2022-11-20T07:13:05.946Z,22.48
2022-11-20T07:16:10.700Z,22.46
2022-11-20T07:19:15.661Z,22.45
2022-11-20T07:22:19.219Z,22.44
2022-11-20T07:25:22.854Z,22.46
2022-11-20T07:28:26.347Z,22.47
2022-11-20T07:31:29.872Z,22.51
2022-11-20T07:34:34.734Z,22.57
2022-11-20T07:37:39.082Z,22.62
2022-11-20T07:40:42.650Z,22.69
2022-11-20T07:43:46.126Z,22.74
2022-11-20T07:46:49.591Z,22.85
2022-11-20T07:49:54.594Z,23.06
2022-11-20T07:53:05.653Z,23.48
2022-11-20T07:56:10.449Z,23.83
2022-11-20T07:59:13.940Z,24.14
2022-11-20T08:02:17.406Z,24.44
2022-11-20T08:05:22.661Z,24.80
2022-11-20T08:08:27.027Z,25.07
2022-11-20T08:11:47.910Z,25.60
2022-11-20T08:14:51.489Z,25.79
2022-11-20T08:18:29.562Z,26.14
2022-11-20T08:21:28.130Z,26.21
2022-11-20T08:24:31.540Z,26.00
2022-11-20T08:27:37.784Z,25.82
2022-11-20T08:30:42.204Z,25.60
2022-11-20T08:33:45.805Z,25.40
2022-11-20T08:36:50.472Z,25.23
2022-11-20T08:39:54.717Z,25.25
2022-11-20T08:42:58.087Z,25.43
2022-11-20T08:46:01.974Z,25.58
2022-11-20T08:49:06.909Z,25.66
2022-11-20T08:52:12.121Z,25.60
2022-11-20T08:55:15.584Z,25.45
2022-11-20T08:58:19.153Z,25.33
2022-11-20T09:01:25.168Z,25.21
2022-11-20T09:04:28.974Z,25.05
2022-11-20T09:07:33.742Z,24.99
2022-11-20T09:10:40.737Z,24.88
2022-11-20T09:13:43.999Z,24.93
2022-11-20T09:16:48.085Z,24.73
2022-11-20T09:19:51.334Z,24.47
2022-11-20T09:22:56.276Z,24.31
2022-11-20T09:26:00.733Z,24.14
2022-11-20T09:29:04.391Z,24.05
2022-11-20T09:32:07.950Z,24.00
2022-11-20T09:35:12.918Z,24.00
2022-11-20T09:38:17.803Z,24.02
2022-11-20T09:41:43.906Z,24.29
2022-11-20T09:45:16.310Z,24.72
2022-11-20T09:48:50.572Z,25.21
2022-11-20T09:52:00.366Z,25.68
2022-11-20T09:55:13.269Z,26.13
2022-11-20T09:58:33.106Z,26.53
2022-11-20T10:01:41.752Z,26.63
2022-11-20T10:04:54.712Z,26.79
2022-11-20T10:08:22.012Z,26.85
2022-11-20T10:11:42.058Z,26.86
2022-11-20T10:15:05.946Z,26.84
2022-11-20T10:18:33.099Z,26.78
2022-11-20T10:22:00.378Z,26.67
2022-11-20T10:25:15.672Z,26.64
2022-11-20T10:28:41.719Z,26.73
2022-11-20T10:31:53.003Z,26.68
2022-11-20T10:35:07.084Z,26.54
2022-11-20T10:38:20.988Z,26.41
2022-11-20T10:41:35.928Z,26.20
2022-11-20T10:45:06.105Z,26.17
2022-11-20T10:48:18.556Z,25.91
2022-11-20T10:51:39.524Z,26.22
2022-11-20T10:54:54.510Z,26.74
2022-11-20T10:58:12.169Z,26.77
2022-11-20T11:01:22.540Z,26.88
2022-11-20T11:04:45.091Z,27.51
2022-11-20T11:07:53.033Z,28.13
2022-11-20T11:11:03.110Z,28.70
2022-11-20T11:14:08.389Z,29.07
2022-11-20T11:17:27.892Z,28.95
2022-11-20T11:20:32.857Z,28.83
2022-11-20T11:23:39.715Z,28.83
2022-11-20T11:26:57.074Z,28.73
2022-11-20T11:30:15.218Z,28.67
2022-11-20T11:33:24.676Z,28.55
2022-11-20T11:36:28.004Z,28.63
2022-11-20T11:39:35.280Z,28.68
2022-11-20T11:42:46.003Z,28.72
2022-11-20T11:45:56.562Z,28.80
2022-11-20T11:49:04.189Z,28.96
2022-11-20T11:52:19.096Z,29.02
2022-11-20T11:55:35.379Z,29.01
2022-11-20T11:58:50.506Z,28.96
2022-11-20T12:02:04.984Z,28.87
2022-11-20T12:05:21.981Z,28.48
2022-11-20T12:08:33.434Z,27.49
2022-11-20T12:11:49.029Z,26.86
2022-11-20T12:14:57.251Z,26.39
2022-11-20T12:18:02.033Z,26.09
2022-11-20T12:21:21.924Z,25.89
2022-11-20T12:24:48.055Z,25.71
2022-11-20T12:28:26.256Z,25.57
2022-11-20T12:31:54.240Z,25.53
2022-11-20T12:35:16.742Z,25.53
2022-11-20T12:39:17.485Z,25.56
2022-11-20T12:43:07.418Z,25.61
2022-11-20T12:46:36.386Z,25.65
2022-11-20T12:49:55.711Z,25.71
2022-11-20T12:53:08.840Z,25.78
2022-11-20T12:56:29.418Z,25.87
2022-11-20T13:00:03.202Z,25.88
2022-11-20T13:03:38.600Z,25.88
2022-11-20T13:06:43.401Z,25.88
2022-11-20T13:09:51.911Z,25.93
2022-11-20T13:13:06.453Z,25.92
2022-11-20T13:16:21.794Z,25.87
2022-11-20T13:19:28.543Z,25.88
2022-11-20T13:22:46.703Z,25.87
2022-11-20T13:25:51.250Z,25.87
2022-11-20T13:29:13.664Z,25.89
2022-11-20T13:32:21.060Z,25.89
2022-11-20T13:35:32.754Z,25.93
2022-11-20T13:38:46.878Z,25.89
2022-11-20T13:41:58.743Z,25.87
2022-11-20T13:45:12.917Z,25.84
2022-11-20T13:48:25.399Z,25.83
2022-11-20T13:51:44.544Z,25.83
2022-11-20T13:55:13.607Z,25.77
2022-11-20T13:58:46.897Z,25.56
2022-11-20T14:01:51.963Z,25.28
2022-11-20T14:05:02.209Z,25.08
2022-11-20T14:08:09.144Z,24.83
2022-11-20T14:11:20.510Z,24.61
2022-11-20T14:14:26.383Z,24.35
2022-11-20T14:17:36.587Z,24.18
2022-11-20T14:20:40.906Z,24.01
2022-11-20T14:23:44.916Z,23.89
2022-11-20T14:26:49.448Z,23.82
2022-11-20T14:29:53.976Z,23.75
2022-11-20T14:33:04.773Z,23.74
2022-11-20T14:36:20.360Z,23.67
2022-11-20T14:39:27.780Z,23.66
2022-11-20T14:42:32.182Z,23.68
2022-11-20T14:45:35.983Z,23.71
2022-11-20T14:48:45.523Z,23.76
2022-11-20T14:51:48.929Z,23.76
2022-11-20T14:54:55.943Z,23.82
2022-11-20T14:58:02.610Z,23.87
2022-11-20T15:01:09.091Z,23.95
2022-11-20T15:04:13.706Z,24.04
2022-11-20T15:07:27.338Z,24.31
2022-11-20T15:10:30.737Z,24.70
2022-11-20T15:13:39.583Z,25.04
2022-11-20T15:16:42.811Z,25.22
2022-11-20T15:19:48.482Z,25.34
2022-11-20T15:22:51.686Z,25.42
2022-11-20T15:25:56.618Z,25.52
2022-11-20T15:28:59.990Z,25.58
2022-11-20T15:32:07.905Z,25.67
2022-11-20T15:35:17.290Z,25.76
2022-11-20T15:38:21.252Z,25.82
2022-11-20T15:41:24.512Z,25.89
2022-11-20T15:44:28.453Z,25.94
2022-11-20T15:47:35.865Z,25.96
2022-11-20T15:50:51.870Z,25.98
2022-11-20T15:53:57.302Z,25.97
2022-11-20T15:57:01.770Z,26.00
2022-11-20T16:00:06.636Z,26.03
2022-11-20T16:03:16.420Z,26.01
2022-11-20T16:06:21.093Z,26.03
2022-11-20T16:09:25.089Z,26.06
2022-11-20T16:12:46.173Z,26.05
2022-11-20T16:15:58.612Z,26.06
2022-11-20T16:19:02.041Z,26.03
2022-11-20T16:22:07.445Z,26.09
2022-11-20T16:25:10.671Z,26.07
2022-11-20T16:28:18.809Z,26.13
2022-11-20T16:31:23.730Z,26.12
2022-11-20T16:34:27.780Z,26.10
2022-11-20T16:37:32.476Z,26.12
2022-11-20T16:40:37.044Z,26.08
2022-11-20T16:43:47.658Z,26.10
2022-11-20T16:46:51.900Z,26.07
2022-11-20T16:49:55.160Z,26.11
2022-11-20T16:53:00.487Z,26.14
2022-11-20T16:56:11.954Z,26.17
2022-11-20T16:59:16.040Z,26.20
2022-11-20T17:02:19.240Z,26.26
2022-11-20T17:05:23.170Z,26.27
2022-11-20T17:08:30.445Z,26.27
2022-11-20T17:11:34.857Z,26.20
2022-11-20T17:14:38.137Z,26.23
2022-11-20T17:17:42.101Z,26.24
2022-11-20T17:20:53.819Z,26.29
2022-11-20T17:24:03.394Z,26.27
2022-11-20T17:27:06.642Z,26.31
2022-11-20T17:30:11.030Z,26.32
2022-11-20T17:33:14.265Z,26.36
2022-11-20T17:36:21.284Z,26.41
2022-11-20T17:39:25.860Z,26.42
2022-11-20T17:42:36.950Z,26.41
2022-11-20T17:45:40.510Z,26.42
2022-11-20T17:48:45.762Z,26.39
2022-11-20T17:51:49.109Z,26.38
2022-11-20T17:54:56.206Z,26.43
2022-11-20T17:58:02.761Z,26.38
2022-11-20T18:01:07.418Z,26.34
2022-11-20T18:04:11.926Z,26.39
2022-11-20T18:07:15.939Z,26.40
2022-11-20T18:10:20.546Z,26.42
2022-11-20T18:13:47.752Z,26.44
2022-11-20T18:16:55.211Z,26.40
2022-11-20T18:23:23.264Z,26.35
2022-11-20T18:26:29.216Z,26.38
2022-11-20T18:29:32.782Z,26.35
2022-11-20T18:32:37.088Z,26.33
2022-11-20T18:35:42.856Z,26.36
2022-11-20T18:38:49.353Z,26.40
2022-11-20T18:42:12.005Z,26.42
2022-11-20T18:45:16.385Z,26.41
2022-11-20T18:48:19.636Z,26.43
2022-11-20T18:51:23.574Z,26.45
2022-11-20T18:54:27.285Z,26.42
2022-11-20T18:57:33.233Z,26.41
2022-11-20T19:00:36.493Z,26.33
2022-11-20T19:03:40.336Z,26.33
2022-11-20T19:06:46.143Z,26.29
2022-11-20T19:09:52.593Z,26.25
2022-11-20T19:12:58.509Z,26.22
2022-11-20T19:16:04.439Z,26.11
2022-11-20T19:19:08.224Z,25.91
2022-11-20T19:22:12.202Z,25.72
2022-11-20T19:25:15.597Z,25.43
2022-11-20T19:28:21.144Z,25.27
2022-11-20T19:31:27.523Z,25.19
2022-11-20T19:34:31.611Z,25.11
2022-11-20T19:37:35.688Z,25.08
2022-11-20T19:40:39.672Z,25.04
2022-11-20T19:43:44.683Z,25.00
2022-11-20T19:46:48.317Z,24.99
2022-11-20T19:49:51.555Z,25.05
2022-11-20T19:52:58.668Z,25.11
2022-11-20T19:56:02.850Z,25.11
2022-11-20T19:59:08.366Z,25.12
2022-11-20T20:02:12.847Z,25.12
2022-11-20T20:05:16.890Z,25.11
2022-11-20T20:08:20.845Z,25.13
2022-11-20T20:11:28.125Z,25.16
2022-11-20T20:14:34.714Z,25.16
2022-11-20T20:17:38.536Z,25.11
2022-11-20T20:20:41.769Z,25.12
2022-11-20T20:23:47.955Z,25.11
2022-11-20T20:26:54.335Z,25.05
2022-11-20T20:30:03.201Z,25.04
2022-11-20T20:33:06.440Z,25.06
2022-11-20T20:36:13.428Z,25.12
2022-11-20T20:39:16.823Z,25.32
2022-11-20T20:42:20.674Z,25.70
2022-11-20T20:45:25.346Z,26.03
2022-11-20T20:48:29.217Z,26.19
2022-11-20T20:51:32.397Z,26.07
2022-11-20T20:54:35.915Z,25.92
2022-11-20T20:57:40.209Z,25.79
2022-11-20T21:00:45.172Z,25.70
2022-11-20T21:03:48.565Z,25.55
2022-11-20T21:06:52.288Z,25.40
2022-11-20T21:09:55.669Z,25.31
2022-11-20T21:12:59.236Z,25.16
2022-11-20T21:16:05.432Z,25.00
2022-11-20T21:19:09.476Z,24.81
2022-11-20T21:22:11.775Z,24.64
2022-11-20T21:25:15.557Z,24.38
2022-11-20T21:28:18.934Z,24.12
2022-11-20T21:31:27.075Z,23.88
2022-11-20T21:34:30.432Z,23.62
2022-11-20T21:37:38.345Z,23.36
2022-11-20T21:40:44.168Z,23.12
2022-11-20T21:44:03.801Z,22.93
2022-11-20T21:47:13.776Z,22.69
2022-11-20T21:50:18.008Z,22.50
2022-11-20T21:53:21.365Z,22.32
2022-11-20T21:56:27.550Z,22.16
2022-11-20T21:59:31.213Z,22.00
2022-11-20T22:02:36.533Z,21.90
2022-11-20T22:05:40.675Z,21.77
2022-11-20T22:08:44.339Z,21.64
2022-11-20T22:11:47.540Z,21.56
2022-11-20T22:14:50.459Z,21.48
2022-11-20T22:18:12.793Z,21.42
2022-11-20T22:21:19.963Z,21.30
2022-11-20T22:24:24.411Z,21.23
2022-11-20T22:27:28.041Z,21.19
2022-11-20T22:30:31.315Z,21.19
2022-11-20T22:33:38.223Z,21.21
2022-11-20T22:36:42.539Z,21.21
2022-11-20T22:39:46.299Z,21.24
2022-11-20T22:42:49.543Z,21.30
2022-11-20T22:45:53.147Z,21.39
2022-11-20T22:49:01.164Z,21.54
2022-11-20T22:52:05.168Z,21.64
2022-11-20T22:55:14.989Z,21.76
2022-11-20T22:58:19.922Z,21.85
2022-11-20T23:01:26.256Z,21.96
2022-11-20T23:04:31.250Z,22.06
2022-11-20T23:07:39.720Z,22.09
2022-11-20T23:10:44.773Z,22.13
2022-11-20T23:13:49.320Z,22.17
2022-11-20T23:16:52.915Z,22.17
2022-11-20T23:19:57.576Z,22.18
2022-11-20T23:23:01.310Z,22.17
2022-11-20T23:26:06.460Z,22.19
2022-11-20T23:29:10.066Z,22.17
2022-11-20T23:32:13.380Z,22.17
2022-11-20T23:35:18.728Z,22.15
2022-11-20T23:38:22.443Z,22.12
2022-11-20T23:41:26.066Z,22.08
2022-11-20T23:44:29.631Z,22.07
2022-11-20T23:47:33.551Z,22.03
2022-11-20T23:50:38.508Z,22.03
2022-11-20T23:53:42.469Z,21.98
2022-11-20T23:56:45.790Z,21.95
2022-11-20T23:59:49.417Z,21.91
